Time;durP1;ratioP1;P1;durP2;ratioP2;P2;SDS_P1;SDS_P2;PMS_P1;PMS_P2;Temp;Humidity;BMP_temperature;BMP_pressure;BME280_temperature;BME280_humidity;BME280_pressure;Samples;Min_cycle;Max_cycle;Signal;HPM_P1;HPM_P2
2021/08/22 00:01:09;;;;;;;4.40;2.30;;;17.10;99.90;;;;;;4897768;29;20429;-66
2021/08/22 00:03:38;;;;;;;4.60;3.17;;;17.10;99.90;;;;;;4894962;29;20434;-65
2021/08/22 00:06:06;;;;;;;4.87;3.10;;;17.10;99.90;;;;;;4894574;29;20440;-65
2021/08/22 00:08:38;;;;;;;4.83;3.07;;;17.00;99.90;;;;;;4895006;29;20419;-65
2021/08/22 00:11:07;;;;;;;3.43;3.13;;;16.90;99.90;;;;;;4896983;29;20424;-65
2021/08/22 00:13:37;;;;;;;5.17;3.63;;;16.90;99.90;;;;;;4898797;29;20438;-65
2021/08/22 00:16:06;;;;;;;2.87;2.67;;;16.90;99.90;;;;;;4897674;29;20500;-64
2021/08/22 00:18:34;;;;;;;4.13;3.40;;;16.80;99.90;;;;;;4898365;29;20442;-65
2021/08/22 00:21:02;;;;;;;3.50;3.20;;;16.70;99.90;;;;;;4898338;29;20444;-65
2021/08/22 00:23:32;;;;;;;2.90;2.60;;;16.70;99.90;;;;;;4898240;29;20400;-65
2021/08/22 00:26:00;;;;;;;4.40;3.33;;;16.70;99.90;;;;;;4897852;29;21352;-65
2021/08/22 00:28:30;;;;;;;2.97;2.40;;;16.60;99.90;;;;;;4898371;29;20420;-65
2021/08/22 01:08:52;;;;;;;5.13;3.83;;;16.60;99.90;;;;;;4897650;29;20430;-65
2021/08/22 01:11:23;;;;;;;5.47;3.60;;;16.70;99.90;;;;;;4896800;29;20442;-65
2021/08/22 01:13:56;;;;;;;4.03;3.23;;;16.70;99.90;;;;;;4897730;29;20420;-65
2021/08/22 01:16:26;;;;;;;6.40;3.17;;;16.70;99.90;;;;;;4897161;29;20445;-66
2021/08/22 01:18:58;;;;;;;4.90;3.30;;;16.70;99.90;;;;;;4897090;29;20472;-65
2021/08/22 01:21:27;;;;;;;4.13;3.47;;;16.70;99.90;;;;;;4896320;29;20858;-66
2021/08/22 01:24:01;;;;;;;4.47;2.97;;;16.60;99.90;;;;;;4896663;29;20812;-65
2021/08/22 01:26:32;;;;;;;4.87;3.13;;;16.60;99.90;;;;;;4896858;29;20432;-65
2021/08/22 01:29:00;;;;;;;4.00;2.47;;;16.60;99.90;;;;;;4897075;29;20934;-65
2021/08/22 01:31:33;;;;;;;4.50;3.30;;;16.60;99.90;;;;;;4897036;29;20429;-65
2021/08/22 01:34:03;;;;;;;4.67;3.20;;;16.60;99.90;;;;;;4897368;29;20493;-65
2021/08/22 01:36:34;;;;;;;4.47;3.13;;;16.60;99.90;;;;;;4896814;29;20488;-65
2021/08/22 01:39:02;;;;;;;3.23;2.93;;;16.60;99.90;;;;;;4896925;29;20435;-64
2021/08/22 01:41:32;;;;;;;3.60;2.70;;;16.60;99.90;;;;;;4896935;29;20850;-65
2021/08/22 01:44:00;;;;;;;3.47;3.00;;;16.60;99.90;;;;;;4897041;29;20489;-65
2021/08/22 01:46:31;;;;;;;4.20;3.37;;;16.60;99.90;;;;;;4896713;29;20537;-66
2021/08/22 01:49:00;;;;;;;3.03;2.73;;;16.60;99.90;;;;;;4897124;29;20408;-66
2021/08/22 01:51:31;;;;;;;3.93;3.30;;;16.70;99.90;;;;;;4897741;29;20425;-66
2021/08/22 01:54:00;;;;;;;3.80;2.50;;;16.70;99.90;;;;;;4897185;29;20434;-65
2021/08/22 01:56:29;;;;;;;4.20;3.03;;;16.70;99.90;;;;;;4896945;29;20453;-67
2021/08/22 01:58:57;;;;;;;4.90;3.43;;;16.70;99.90;;;;;;4896817;29;20443;-66
2021/08/22 02:01:25;;;;;;;3.37;3.07;;;16.70;99.90;;;;;;4896155;29;20457;-66
2021/08/22 02:04:00;;;;;;;2.97;2.60;;;16.70;99.90;;;;;;4896699;29;20461;-67
2021/08/22 02:06:36;;;;;;;5.90;3.57;;;16.60;99.90;;;;;;4896379;29;20405;-66
2021/08/22 02:09:08;;;;;;;3.13;2.80;;;16.60;99.90;;;;;;4896418;29;20507;-66
2021/08/22 02:11:42;;;;;;;2.80;2.53;;;16.70;99.90;;;;;;4896219;29;20470;-67
2021/08/22 02:14:13;;;;;;;3.87;3.47;;;16.70;99.90;;;;;;4896459;29;20488;-66
2021/08/22 02:16:47;;;;;;;3.30;3.00;;;16.60;99.90;;;;;;4895756;29;20796;-66
2021/08/22 02:19:18;;;;;;;3.17;2.90;;;16.60;99.90;;;;;;4896453;29;20834;-66
2021/08/22 02:21:48;;;;;;;2.87;2.67;;;16.60;99.90;;;;;;4895942;29;20475;-67
2021/08/22 02:24:16;;;;;;;3.50;2.70;;;16.50;99.90;;;;;;4896400;29;20425;-67
2021/08/22 02:26:45;;;;;;;3.40;3.10;;;16.50;99.90;;;;;;4895810;29;20405;-66
2021/08/22 02:29:13;;;;;;;3.13;2.83;;;16.50;99.90;;;;;;4896233;29;20617;-67
2021/08/22 02:31:41;;;;;;;3.20;2.97;;;16.50;99.90;;;;;;4895986;29;20459;-66
2021/08/22 02:34:10;;;;;;;3.53;2.40;;;16.50;99.90;;;;;;4895913;29;20955;-67
2021/08/22 02:36:38;;;;;;;4.53;2.90;;;16.40;99.90;;;;;;4895366;29;20441;-66
2021/08/22 02:39:08;;;;;;;3.63;2.80;;;16.40;99.90;;;;;;4895907;29;20890;-66
2021/08/22 02:41:36;;;;;;;3.97;2.60;;;16.40;99.90;;;;;;4895656;29;20454;-67
2021/08/22 02:44:04;;;;;;;3.17;2.87;;;16.30;99.90;;;;;;4896013;29;20748;-67
2021/08/22 02:46:32;;;;;;;4.77;3.70;;;16.30;99.90;;;;;;4895498;29;20773;-65
2021/08/22 02:49:01;;;;;;;4.93;3.47;;;16.40;99.90;;;;;;4895640;29;20427;-65
2021/08/22 02:51:29;;;;;;;3.73;2.83;;;16.30;99.90;;;;;;4895440;29;20428;-66
2021/08/22 02:53:57;;;;;;;2.93;2.60;;;16.30;99.90;;;;;;4895511;29;20822;-66
2021/08/22 02:56:26;;;;;;;2.80;2.60;;;16.30;99.90;;;;;;4895696;29;20844;-66
2021/08/22 02:58:54;;;;;;;3.80;3.50;;;16.30;99.90;;;;;;4895644;29;20750;-67
2021/08/22 03:01:22;;;;;;;4.00;2.77;;;16.30;99.90;;;;;;4895699;29;20523;-67
2021/08/22 03:03:51;;;;;;;4.50;3.53;;;16.30;99.90;;;;;;4895269;29;20770;-67
2021/08/22 03:06:19;;;;;;;4.00;3.27;;;16.30;99.90;;;;;;4895206;29;20465;-67
2021/08/22 03:08:47;;;;;;;2.97;2.63;;;16.30;99.90;;;;;;4895462;29;20438;-64
2021/08/22 03:11:17;;;;;;;3.73;3.20;;;16.20;99.90;;;;;;4895465;29;20500;-65
2021/08/22 03:13:46;;;;;;;2.73;2.50;;;16.20;99.90;;;;;;4895399;29;20429;-66
2021/08/22 03:16:15;;;;;;;4.60;3.50;;;16.30;99.90;;;;;;4895396;29;20460;-66
2021/08/22 03:18:43;;;;;;;3.90;3.60;;;16.30;99.90;;;;;;4895099;29;20463;-68
2021/08/22 03:21:11;;;;;;;4.30;3.90;;;16.30;99.90;;;;;;4895561;29;20454;-67
2021/08/22 03:23:39;;;;;;;4.47;3.50;;;16.20;99.90;;;;;;4895393;29;20908;-66
2021/08/22 03:26:08;;;;;;;6.80;4.00;;;16.20;99.90;;;;;;4895455;29;20491;-66
2021/08/22 03:28:36;;;;;;;4.03;3.27;;;16.20;99.90;;;;;;4895137;29;20407;-66
2021/08/22 03:31:06;;;;;;;3.87;3.40;;;16.20;99.90;;;;;;4895287;29;20409;-66
2021/08/22 03:33:34;;;;;;;3.93;3.47;;;16.10;99.90;;;;;;4895243;29;20445;-66
2021/08/22 03:36:02;;;;;;;3.63;2.93;;;16.10;99.90;;;;;;4894763;29;20444;-66
2021/08/22 03:38:30;;;;;;;2.53;2.13;;;16.10;99.90;;;;;;4894856;29;20854;-66
2021/08/22 03:40:58;;;;;;;4.20;3.80;;;16.10;99.90;;;;;;4878506;29;20422;-66
2021/08/22 03:43:27;;;;;;;3.67;3.00;;;16.10;99.90;;;;;;4895321;29;20450;-64
2021/08/22 03:45:55;;;;;;;3.83;3.53;;;16.00;99.90;;;;;;4897241;29;20926;-66
2021/08/22 03:48:24;;;;;;;4.70;3.47;;;16.00;99.90;;;;;;4898741;29;20468;-65
2021/08/22 03:50:52;;;;;;;3.77;3.40;;;15.90;99.90;;;;;;4898646;29;20413;-66
2021/08/22 03:53:21;;;;;;;4.03;3.10;;;15.90;99.90;;;;;;4898628;29;20426;-65
2021/08/22 03:55:50;;;;;;;10.27;3.77;;;15.90;99.90;;;;;;4898523;29;20487;-66
2021/08/22 03:58:18;;;;;;;4.60;3.27;;;15.90;99.90;;;;;;4898372;29;20404;-66
2021/08/22 04:00:46;;;;;;;3.43;3.03;;;15.90;99.90;;;;;;4898359;29;20934;-66
2021/08/22 04:03:14;;;;;;;3.80;3.23;;;15.80;99.90;;;;;;4898469;29;20781;-66
2021/08/22 04:06:11;;;;;;;4.30;3.90;;;15.80;99.90;;;;;;4876242;29;20412;-66
2021/08/22 04:08:40;;;;;;;3.73;3.33;;;15.80;99.90;;;;;;4898395;29;20408;-67
2021/08/22 04:11:09;;;;;;;4.13;2.73;;;15.80;99.90;;;;;;4898467;29;20493;-64
2021/08/22 04:13:37;;;;;;;3.40;2.83;;;15.80;99.90;;;;;;4898605;29;20434;-66
2021/08/22 04:16:05;;;;;;;5.03;3.47;;;15.80;99.90;;;;;;4898081;29;20404;-67
2021/08/22 04:18:34;;;;;;;3.47;2.80;;;15.80;99.90;;;;;;4898383;29;20426;-66
2021/08/22 04:21:02;;;;;;;4.53;3.63;;;15.80;99.90;;;;;;4898772;29;21342;-66
2021/08/22 04:23:33;;;;;;;2.57;2.37;;;15.80;99.90;;;;;;4898335;29;20419;-64
2021/08/22 04:26:02;;;;;;;3.27;2.60;;;15.80;99.90;;;;;;4898143;29;20435;-66
2021/08/22 04:28:30;;;;;;;4.40;3.47;;;15.80;99.90;;;;;;4898101;29;20426;-66
2021/08/22 04:30:58;;;;;;;3.10;2.63;;;15.80;99.90;;;;;;4881294;29;20424;-66
2021/08/22 04:33:28;;;;;;;4.13;3.77;;;15.80;99.90;;;;;;4897958;29;20409;-66
2021/08/22 04:35:56;;;;;;;4.77;3.40;;;15.90;99.90;;;;;;4898044;29;20469;-66
2021/08/22 04:38:24;;;;;;;5.43;3.30;;;15.90;99.90;;;;;;4897980;29;20884;-65
2021/08/22 04:40:54;;;;;;;2.80;2.50;;;15.90;99.90;;;;;;4898138;29;20413;-66
2021/08/22 04:43:24;;;;;;;3.00;2.20;;;15.90;99.90;;;;;;4898057;29;20416;-66
2021/08/22 04:45:52;;;;;;;4.03;3.67;;;16.00;99.90;;;;;;4897788;29;20418;-66
2021/08/22 04:48:21;;;;;;;3.43;3.13;;;16.00;99.90;;;;;;4897896;29;20498;-66
2021/08/22 04:50:49;;;;;;;5.30;3.87;;;16.00;99.90;;;;;;4898015;29;20413;-66
2021/08/22 04:53:17;;;;;;;3.90;3.50;;;16.10;99.90;;;;;;4897616;29;20409;-65
2021/08/22 04:55:45;;;;;;;3.33;2.57;;;16.10;99.90;;;;;;4897496;29;20420;-66
2021/08/22 04:58:14;;;;;;;3.20;2.90;;;16.20;99.90;;;;;;4897352;29;20512;-66
2021/08/22 05:00:43;;;;;;;3.80;2.60;;;16.40;99.90;;;;;;4897824;29;20440;-66
2021/08/22 05:03:11;;;;;;;3.57;3.27;;;16.50;99.90;;;;;;4897642;29;20817;-65
2021/08/22 05:05:39;;;;;;;3.43;3.13;;;16.70;99.90;;;;;;4897471;29;20776;-65
2021/08/22 05:08:07;;;;;;;3.70;2.77;;;16.70;99.90;;;;;;4897374;29;20833;-66
2021/08/22 05:10:36;;;;;;;4.63;2.47;;;16.70;99.80;;;;;;4897468;29;20490;-65
2021/08/22 05:13:04;;;;;;;7.50;2.37;;;16.70;99.80;;;;;;4897670;29;20470;-65
2021/08/22 05:15:34;;;;;;;3.20;2.77;;;16.80;97.00;;;;;;4897042;29;20408;-65
2021/08/22 05:18:02;;;;;;;7.17;2.60;;;16.80;96.80;;;;;;4897429;29;20888;-66
2021/08/22 05:20:30;;;;;;;3.23;2.87;;;16.70;97.90;;;;;;4897282;29;20465;-66
2021/08/22 05:22:58;;;;;;;4.60;2.10;;;16.60;97.70;;;;;;4897742;29;20513;-66
2021/08/22 05:25:26;;;;;;;2.63;2.07;;;16.70;97.80;;;;;;4897076;29;20393;-66
2021/08/22 05:27:55;;;;;;;3.53;2.53;;;16.70;97.90;;;;;;4897393;29;20804;-64
2021/08/22 05:30:23;;;;;;;2.60;2.40;;;16.70;97.30;;;;;;4897227;29;20426;-64
2021/08/22 05:32:52;;;;;;;3.57;2.20;;;16.80;96.80;;;;;;4897096;29;20454;-63
2021/08/22 05:35:22;;;;;;;3.90;2.70;;;16.90;94.80;;;;;;4897255;29;20955;-65
2021/08/22 05:37:50;;;;;;;2.37;2.17;;;17.00;93.60;;;;;;4880213;29;20444;-66
2021/08/22 05:40:18;;;;;;;6.23;3.13;;;17.20;90.20;;;;;;4897232;29;20441;-66
2021/08/22 05:42:46;;;;;;;4.43;2.63;;;17.20;89.00;;;;;;4897428;29;20425;-66
2021/08/22 05:45:15;;;;;;;3.53;2.53;;;17.40;83.00;;;;;;4896997;29;20929;-66
2021/08/22 05:47:43;;;;;;;3.37;2.50;;;17.50;78.70;;;;;;4897078;29;20416;-67
2021/08/22 05:50:13;;;;;;;1.80;1.70;;;17.60;75.10;;;;;;4897212;29;20405;-66
2021/08/22 05:52:41;;;;;;;3.00;2.70;;;17.60;67.80;;;;;;4896999;29;20446;-66
2021/08/22 05:55:11;;;;;;;3.10;2.67;;;17.60;63.40;;;;;;4897011;29;20431;-67
2021/08/22 05:57:39;;;;;;;2.70;2.07;;;17.60;64.20;;;;;;4896601;29;20808;-66
2021/08/22 06:00:09;;;;;;;2.87;2.33;;;17.50;64.00;;;;;;4896897;29;20412;-68
2021/08/22 06:02:40;;;;;;;2.40;2.10;;;17.60;63.70;;;;;;4896731;29;20861;-66
2021/08/22 06:05:09;;;;;;;2.77;2.53;;;17.60;62.40;;;;;;4896597;29;20975;-66
2021/08/22 06:07:39;;;;;;;2.70;2.23;;;17.60;65.80;;;;;;4895688;29;20960;-67
2021/08/22 06:10:08;;;;;;;3.63;2.67;;;17.60;61.00;;;;;;4896198;29;20908;-65
2021/08/22 06:12:36;;;;;;;3.27;2.40;;;17.50;61.60;;;;;;4946734;23;20829;-76
2021/08/22 06:15:04;;;;;;;3.30;2.70;;;17.70;58.40;;;;;;4932762;29;20432;-75
2021/08/22 06:17:32;;;;;;;1.97;1.70;;;17.70;57.40;;;;;;4937373;29;20949;-76
2021/08/22 06:20:01;;;;;;;4.23;2.40;;;17.70;56.30;;;;;;4951454;29;20441;-76
2021/08/22 06:22:29;;;;;;;3.70;3.10;;;17.80;56.40;;;;;;4923023;29;20432;-78
2021/08/22 06:24:58;;;;;;;2.73;2.50;;;18.00;52.50;;;;;;4918175;29;20433;-77
2021/08/22 06:27:26;;;;;;;3.33;3.03;;;18.10;49.10;;;;;;4917879;29;20858;-77
2021/08/22 06:29:54;;;;;;;3.90;2.70;;;18.30;43.70;;;;;;4901011;29;21120;-77
2021/08/22 06:32:22;;;;;;;4.43;2.40;;;18.40;41.50;;;;;;4918105;29;20487;-77
2021/08/22 06:34:50;;;;;;;2.50;2.30;;;18.40;40.50;;;;;;4918478;29;20847;-75
2021/08/22 06:37:19;;;;;;;2.57;2.37;;;18.50;39.10;;;;;;4914670;29;20416;-75
2021/08/22 06:39:48;;;;;;;2.50;2.20;;;18.50;36.60;;;;;;4920174;29;20760;-74
2021/08/22 06:42:17;;;;;;;2.30;2.10;;;18.60;36.90;;;;;;4920043;29;20485;-74
2021/08/22 06:44:45;;;;;;;2.90;2.00;;;18.60;35.70;;;;;;4918199;29;20438;-75
2021/08/22 06:47:14;;;;;;;4.60;2.33;;;18.50;34.80;;;;;;4919650;29;20412;-75
2021/08/22 06:49:42;;;;;;;2.63;2.17;;;18.70;34.10;;;;;;4902002;29;20414;-74
2021/08/22 06:52:12;;;;;;;6.43;2.43;;;18.90;32.50;;;;;;4920777;29;20462;-74
2021/08/22 06:54:41;;;;;;;2.80;2.27;;;18.90;29.80;;;;;;4920635;29;20481;-73
2021/08/22 06:57:11;;;;;;;2.57;1.93;;;18.80;29.50;;;;;;4920146;29;20468;-74
2021/08/22 06:59:41;;;;;;;1.73;1.53;;;18.80;29.20;;;;;;4919040;29;20997;-74
2021/08/22 07:02:10;;;;;;;2.80;2.20;;;19.10;29.10;;;;;;4918189;29;20512;-73
2021/08/22 07:04:39;;;;;;;2.60;2.00;;;19.30;26.30;;;;;;4933045;29;20496;-75
2021/08/22 07:07:07;;;;;;;5.60;2.60;;;19.50;24.40;;;;;;4918467;29;20957;-76
2021/08/22 07:09:35;;;;;;;2.10;1.90;;;19.90;22.40;;;;;;4918360;29;20400;-74
2021/08/22 07:12:04;;;;;;;2.47;1.93;;;20.20;19.80;;;;;;4925712;29;20435;-75
2021/08/22 07:14:32;;;;;;;4.13;3.07;;;20.10;18.90;;;;;;4927253;29;20438;-73
2021/08/22 07:17:01;;;;;;;2.53;2.13;;;20.10;19.50;;;;;;4913134;29;20444;-74
2021/08/22 07:19:30;;;;;;;2.00;1.60;;;20.50;19.70;;;;;;4927215;29;20451;-74
2021/08/22 07:21:58;;;;;;;2.07;1.87;;;20.50;16.70;;;;;;4942535;29;20437;-74
2021/08/22 07:24:26;;;;;;;2.77;2.23;;;20.30;16.40;;;;;;4927107;29;20434;-73
2021/08/22 07:26:54;;;;;;;3.33;2.77;;;20.30;16.40;;;;;;4927765;29;20412;-74
2021/08/22 07:29:22;;;;;;;2.60;2.10;;;20.20;16.70;;;;;;4926548;29;20426;-73
2021/08/22 07:31:50;;;;;;;2.67;2.43;;;20.30;16.60;;;;;;4928616;29;20445;-73
2021/08/22 07:34:20;;;;;;;2.00;1.80;;;20.10;15.30;;;;;;4929773;29;20408;-73
2021/08/22 07:36:48;;;;;;;3.00;2.60;;;20.00;16.50;;;;;;4925830;29;20488;-73
2021/08/22 07:39:16;;;;;;;3.47;2.20;;;20.10;16.50;;;;;;4902743;29;20473;-73
2021/08/22 07:41:44;;;;;;;2.30;2.10;;;20.30;16.80;;;;;;4916940;29;20463;-73
2021/08/22 07:44:12;;;;;;;4.07;2.47;;;20.60;16.30;;;;;;4916592;29;20431;-74
2021/08/22 07:46:40;;;;;;;2.07;1.80;;;20.50;15.60;;;;;;4899275;29;20552;-75
2021/08/22 07:49:08;;;;;;;3.00;2.70;;;20.50;15.40;;;;;;4916367;29;20982;-74
2021/08/22 07:51:38;;;;;;;2.70;2.00;;;20.80;14.90;;;;;;4916198;29;20457;-74
2021/08/22 07:54:06;;;;;;;3.47;1.97;;;20.80;14.80;;;;;;4916562;29;20462;-74
2021/08/22 07:56:34;;;;;;;2.97;2.00;;;21.00;13.60;;;;;;4915816;29;20433;-75
2021/08/22 07:59:02;;;;;;;2.03;1.70;;;21.20;13.60;;;;;;4916251;29;20524;-74
2021/08/22 08:01:31;;;;;;;2.90;1.90;;;21.10;12.70;;;;;;4916360;29;20456;-73
2021/08/22 08:04:00;;;;;;;3.13;2.83;;;21.20;12.90;;;;;;4899620;29;20445;-75
2021/08/22 08:06:28;;;;;;;3.63;2.90;;;21.10;13.00;;;;;;4915973;29;20815;-74
2021/08/22 08:08:58;;;;;;;2.97;2.40;;;20.70;13.20;;;;;;4916397;29;20440;-75
2021/08/22 08:11:26;;;;;;;2.87;2.50;;;20.70;14.50;;;;;;4916263;29;20455;-73
2021/08/22 08:13:54;;;;;;;2.97;2.60;;;20.70;14.10;;;;;;4915897;29;20481;-73
2021/08/22 08:16:23;;;;;;;3.47;2.80;;;20.70;14.70;;;;;;4898745;29;20446;-74
2021/08/22 08:18:51;;;;;;;3.23;2.93;;;20.70;14.70;;;;;;4916029;29;20439;-73
2021/08/22 08:21:20;;;;;;;2.87;2.57;;;20.90;14.50;;;;;;4915923;29;20456;-76
2021/08/22 08:23:48;;;;;;;2.63;2.43;;;21.10;14.20;;;;;;4916009;29;20963;-75
2021/08/22 08:26:17;;;;;;;2.63;2.10;;;21.20;14.50;;;;;;4915771;29;20427;-74
2021/08/22 08:28:45;;;;;;;2.20;2.00;;;21.80;13.40;;;;;;4916274;29;20529;-75
2021/08/22 08:31:14;;;;;;;2.97;2.67;;;21.60;12.30;;;;;;4917518;29;20441;-75
2021/08/22 08:33:42;;;;;;;3.20;2.90;;;21.40;13.20;;;;;;4919709;29;20515;-74
2021/08/22 08:36:10;;;;;;;3.43;3.00;;;21.40;13.60;;;;;;4902221;29;20472;-74
2021/08/22 08:38:40;;;;;;;4.10;2.43;;;21.50;13.20;;;;;;4902332;29;20508;-74
2021/08/22 08:41:08;;;;;;;3.50;3.20;;;21.40;13.10;;;;;;4919825;29;20449;-75
2021/08/22 08:43:38;;;;;;;2.90;2.60;;;21.50;14.00;;;;;;4918100;29;20932;-74
2021/08/22 08:46:09;;;;;;;3.23;2.93;;;21.40;14.40;;;;;;4917928;29;20412;-75
2021/08/22 08:48:38;;;;;;;2.97;2.70;;;21.60;13.60;;;;;;4919261;29;20407;-76
2021/08/22 08:51:14;;;;;;;3.63;2.67;;;21.60;13.30;;;;;;4918923;29;20432;-75
2021/08/22 08:53:44;;;;;;;2.90;2.40;;;21.70;14.00;;;;;;4919423;29;20812;-75
2021/08/22 08:56:12;;;;;;;2.87;2.40;;;21.90;13.30;;;;;;4918958;29;20408;-73
2021/08/22 08:58:41;;;;;;;2.90;2.53;;;21.90;13.50;;;;;;4901742;29;20526;-73
2021/08/22 09:01:09;;;;;;;2.70;2.50;;;22.00;12.70;;;;;;4923429;29;20453;-74
2021/08/22 09:03:44;;;;;;;3.60;3.30;;;22.20;12.80;;;;;;4929822;29;20408;-74
2021/08/22 09:06:31;;;;;;;3.30;3.00;;;22.60;12.70;;;;;;4925952;29;20404;-73
2021/08/22 09:09:32;;;;;;;2.83;2.50;;;22.60;11.90;;;;;;4925651;29;20757;-73
2021/08/22 09:12:41;;;;;;;3.10;2.80;;;22.30;12.10;;;;;;4926037;29;20461;-73
2021/08/22 09:16:15;;;;;;;3.53;2.97;;;21.90;12.80;;;;;;4909273;29;20794;-73
2021/08/22 09:19:11;;;;;;;3.30;2.90;;;21.50;14.50;;;;;;4920086;29;20448;-75
2021/08/22 09:22:28;;;;;;;5.20;2.67;;;21.50;15.60;;;;;;4920223;29;20549;-81
2021/08/22 09:25:38;;;;;;;2.50;2.30;;;21.80;14.70;;;;;;4910744;29;20941;-79
2021/08/22 09:28:51;;;;;;;4.07;3.10;;;21.90;14.40;;;;;;4869841;29;20454;-79
2021/08/22 09:31:53;;;;;;;4.10;3.80;;;21.90;14.70;;;;;;4888849;29;20450;-81
2021/08/22 09:35:20;;;;;;;4.60;3.80;;;21.90;14.00;;;;;;4906531;29;20450;-80
2021/08/22 09:38:22;;;;;;;3.00;2.70;;;21.80;14.60;;;;;;4890938;29;20489;-81
2021/08/22 09:41:38;;;;;;;3.33;2.87;;;21.70;15.10;;;;;;4906729;29;20477;-80
2021/08/22 09:45:04;;;;;;;2.87;2.57;;;21.70;14.90;;;;;;4905519;29;20533;-78
2021/08/22 09:51:41;;;;;;;3.73;2.93;;;21.70;14.80;;;;;;5088589;28;20701;-67
2021/08/22 09:54:46;;;;;;;4.00;3.13;;;21.70;15.70;;;;;;5068173;28;20452;-69
2021/08/22 09:57:51;;;;;;;2.90;2.53;;;22.00;15.40;;;;;;5067893;28;20500;-69
2021/08/22 10:00:58;;;;;;;4.57;3.80;;;22.00;14.00;;;;;;5067975;28;20415;-68
2021/08/22 10:03:49;;;;;;;2.97;2.63;;;22.10;14.20;;;;;;5068778;28;20422;-68
2021/08/22 10:06:47;;;;;;;5.37;3.87;;;22.00;14.40;;;;;;5074358;28;20433;-68
2021/08/22 10:09:38;;;;;;;4.00;3.47;;;22.00;14.50;;;;;;5068461;28;20452;-68
2021/08/22 10:12:06;;;;;;;4.20;3.60;;;22.10;14.20;;;;;;5068284;28;20420;-68
2021/08/22 10:14:38;;;;;;;4.33;3.40;;;22.20;14.20;;;;;;5069193;28;20427;-68
2021/08/22 10:17:08;;;;;;;4.30;3.90;;;22.20;14.00;;;;;;5062735;28;20957;-68
2021/08/22 10:19:45;;;;;;;5.17;3.90;;;22.30;14.30;;;;;;5070774;28;20394;-68
2021/08/22 10:22:16;;;;;;;5.77;4.47;;;22.60;14.10;;;;;;5059534;28;21018;-68
2021/08/22 10:24:55;;;;;;;4.53;3.60;;;22.70;12.60;;;;;;5048116;28;20408;-69
2021/08/22 10:27:59;;;;;;;3.37;3.07;;;22.70;12.20;;;;;;5047159;28;20807;-68
2021/08/22 10:30:28;;;;;;;4.83;4.30;;;22.80;12.20;;;;;;5046968;28;20830;-68
2021/08/22 10:33:17;;;;;;;3.67;3.30;;;22.80;12.60;;;;;;5047174;28;20443;-68
2021/08/22 10:35:45;;;;;;;3.63;3.10;;;22.80;11.90;;;;;;5047299;28;20427;-69
2021/08/22 10:38:24;;;;;;;5.03;4.57;;;22.80;12.10;;;;;;5047910;28;20419;-69
2021/08/22 10:40:53;;;;;;;4.30;3.13;;;22.60;11.90;;;;;;5046587;28;20931;-68
2021/08/22 10:43:41;;;;;;;6.87;3.80;;;22.60;12.80;;;;;;5046629;28;20419;-68
2021/08/22 10:46:10;;;;;;;4.50;3.90;;;22.50;13.00;;;;;;5046616;28;20427;-69
2021/08/22 10:48:56;;;;;;;3.97;2.87;;;22.80;12.50;;;;;;5046658;28;20398;-69
2021/08/22 10:51:25;;;;;;;4.70;3.70;;;23.00;12.70;;;;;;5046897;28;20442;-68
2021/08/22 10:54:19;;;;;;;4.00;3.43;;;23.30;12.60;;;;;;5047409;28;20967;-69
2021/08/22 10:56:48;;;;;;;3.27;3.00;;;23.60;12.60;;;;;;5046269;28;20446;-69
2021/08/22 10:59:16;;;;;;;3.70;3.30;;;23.90;11.10;;;;;;5046426;28;20402;-69
2021/08/22 11:01:45;;;;;;;5.00;3.50;;;24.20;10.20;;;;;;5036794;28;20458;-68
2021/08/22 11:04:22;;;;;;;4.70;4.00;;;24.40;10.50;;;;;;5034335;28;20784;-69
2021/08/22 11:06:55;;;;;;;5.03;3.93;;;24.40;8.90;;;;;;5032608;28;20432;-67
2021/08/22 11:09:41;;;;;;;6.10;4.70;;;24.40;9.70;;;;;;5034273;28;20416;-68
2021/08/22 11:12:23;;;;;;;3.97;3.63;;;24.10;9.30;;;;;;5033207;28;20962;-69
2021/08/22 11:14:52;;;;;;;5.77;4.10;;;24.10;9.40;;;;;;5033129;28;20431;-68
2021/08/22 11:17:20;;;;;;;4.90;4.50;;;24.00;11.70;;;;;;5033057;28;20931;-67
2021/08/22 11:19:50;;;;;;;5.60;4.67;;;23.90;12.00;;;;;;5032911;28;20434;-68
2021/08/22 11:22:23;;;;;;;5.20;4.70;;;23.80;11.90;;;;;;5033192;28;20521;-68
2021/08/22 11:24:52;;;;;;;4.90;4.33;;;23.40;15.40;;;;;;5033303;28;20395;-67
2021/08/22 11:27:21;;;;;;;5.27;4.50;;;23.20;15.50;;;;;;5033519;28;20495;-68
2021/08/22 11:29:54;;;;;;;6.70;4.93;;;23.10;17.10;;;;;;5034133;28;20460;-67
2021/08/22 11:32:22;;;;;;;5.00;4.60;;;23.00;19.60;;;;;;5034626;28;20502;-69
2021/08/22 11:34:52;;;;;;;7.53;6.43;;;22.70;29.10;;;;;;5049260;28;20478;-71
2021/08/22 11:37:22;;;;;;;8.27;7.40;;;22.10;38.70;;;;;;5033289;28;20828;-69
2021/08/22 11:39:50;;;;;;;10.00;7.07;;;21.60;95.70;;;;;;5033391;28;20922;-69
2021/08/22 11:42:20;;;;;;;8.70;7.30;;;21.20;99.90;;;;;;5035849;28;20447;-69
2021/08/22 11:44:48;;;;;;;9.27;8.37;;;20.60;99.60;;;;;;5036084;28;20879;-70
2021/08/22 11:47:17;;;;;;;8.90;8.00;;;20.40;99.90;;;;;;5035263;28;20403;-69
2021/08/22 11:49:45;;;;;;;8.37;7.50;;;20.00;99.90;;;;;;5037283;28;20411;-70
2021/08/22 11:52:19;;;;;;;7.60;6.80;;;19.70;99.90;;;;;;5053227;28;20426;-68
2021/08/22 11:54:47;;;;;;;10.23;8.63;;;19.60;99.90;;;;;;5038144;28;20409;-73
2021/08/22 11:57:19;;;;;;;22.03;18.93;;;19.70;99.90;;;;;;5037769;28;20410;-69
2021/08/22 12:00:06;;;;;;;14.50;13.10;;;19.50;99.90;;;;;;5037370;28;20508;-69
2021/08/22 12:02:55;;;;;;;14.50;13.07;;;19.50;99.90;;;;;;5040999;28;20426;-70
2021/08/22 12:05:26;;;;;;;13.07;11.63;;;19.40;99.90;;;;;;5054793;28;20968;-69
2021/08/22 12:08:07;;;;;;;14.23;11.33;;;19.60;99.90;;;;;;5054860;28;20398;-69
2021/08/22 12:10:38;;;;;;;14.37;10.67;;;19.60;99.90;;;;;;5054988;28;21037;-69
2021/08/22 12:13:15;;;;;;;14.03;11.77;;;19.60;99.90;;;;;;5034520;23;20455;-68
2021/08/22 12:15:44;;;;;;;16.60;13.57;;;19.70;99.90;;;;;;5024064;28;20397;-69
2021/08/22 12:18:27;;;;;;;18.33;11.23;;;19.80;99.90;;;;;;5016327;28;20887;-69
2021/08/22 12:21:15;;;;;;;10.80;9.10;;;19.90;99.90;;;;;;5011548;28;20787;-70
2021/08/22 12:23:46;;;;;;;10.27;9.30;;;20.10;99.90;;;;;;5011750;28;20406;-66
2021/08/22 12:26:23;;;;;;;13.20;9.10;;;20.20;99.90;;;;;;5011573;28;20486;-66
2021/08/22 12:28:52;;;;;;;8.77;7.83;;;20.10;99.90;;;;;;5011985;28;20442;-65
2021/08/22 12:31:21;;;;;;;11.33;9.50;;;19.80;99.90;;;;;;5011915;28;20466;-67
2021/08/22 12:33:54;;;;;;;8.40;7.50;;;19.50;99.90;;;;;;5012092;28;20429;-67
2021/08/22 12:36:35;;;;;;;11.77;10.23;;;19.30;99.90;;;;;;5011234;28;20403;-66
2021/08/22 12:39:06;;;;;;;11.40;10.23;;;19.20;99.90;;;;;;5011052;28;20421;-67
2021/08/22 12:41:43;;;;;;;12.10;10.87;;;19.00;99.90;;;;;;5011440;28;21005;-68
2021/08/22 12:44:14;;;;;;;18.63;14.00;;;19.00;99.90;;;;;;5011356;28;20487;-68
2021/08/22 12:46:44;;;;;;;11.80;10.60;;;18.90;99.90;;;;;;5010720;28;20481;-67
2021/08/22 12:49:12;;;;;;;11.60;10.50;;;18.90;99.90;;;;;;5009811;28;20448;-68
2021/08/22 12:51:47;;;;;;;12.10;10.83;;;18.80;99.90;;;;;;5010195;28;20927;-66
2021/08/22 12:54:17;;;;;;;13.20;11.90;;;18.80;99.90;;;;;;5011221;28;20399;-68
2021/08/22 12:56:45;;;;;;;10.60;9.50;;;19.00;99.90;;;;;;5010464;28;20432;-68
2021/08/22 12:59:14;;;;;;;11.13;9.97;;;19.20;99.90;;;;;;5008890;28;20410;-69
2021/08/22 13:01:43;;;;;;;12.63;10.90;;;19.40;99.90;;;;;;5008917;28;20419;-69
2021/08/22 13:04:13;;;;;;;13.50;10.70;;;19.60;99.90;;;;;;5010890;28;20427;-67
2021/08/22 13:06:46;;;;;;;12.53;11.37;;;19.70;99.90;;;;;;5010272;28;20841;-67
2021/08/22 13:09:16;;;;;;;11.00;9.80;;;19.70;99.90;;;;;;5010500;28;20404;-67
2021/08/22 13:11:44;;;;;;;13.60;11.83;;;19.70;99.90;;;;;;5010066;28;20486;-67
2021/08/22 13:14:13;;;;;;;10.87;9.70;;;19.80;99.90;;;;;;5010309;28;20400;-67
2021/08/22 13:16:41;;;;;;;16.27;12.30;;;19.80;99.90;;;;;;5009912;28;20400;-68
2021/08/22 13:19:09;;;;;;;12.20;10.90;;;19.60;99.90;;;;;;5010325;28;20407;-69
2021/08/22 13:21:37;;;;;;;12.00;10.40;;;19.50;1.00;;;;;;5010337;28;20424;-68
2021/08/22 13:24:06;;;;;;;11.50;10.33;;;19.20;1.00;;;;;;5009187;28;20411;-68
2021/08/22 13:26:38;;;;;;;10.53;9.53;;;18.80;99.90;;;;;;5009259;28;20404;-67
2021/08/22 13:29:08;;;;;;;11.83;9.00;;;18.60;99.90;;;;;;5011066;28;20396;-71
2021/08/22 13:31:36;;;;;;;12.70;11.40;;;18.50;99.90;;;;;;5010338;28;20480;-70
2021/08/22 13:34:05;;;;;;;10.67;9.67;;;18.50;99.90;;;;;;5010571;28;20465;-70
2021/08/22 13:36:34;;;;;;;13.40;11.80;;;18.60;99.90;;;;;;5010134;28;20435;-69
2021/08/22 13:39:02;;;;;;;10.97;9.87;;;18.90;99.90;;;;;;5009110;28;20453;-70
2021/08/22 13:41:33;;;;;;;10.17;8.30;;;19.00;99.90;;;;;;5007783;28;20955;-70
2021/08/22 13:44:03;;;;;;;8.90;8.00;;;19.20;99.90;;;;;;5010068;28;20433;-70
2021/08/22 13:46:31;;;;;;;8.50;7.70;;;19.40;99.90;;;;;;5011558;28;20826;-70
2021/08/22 13:49:00;;;;;;;9.87;8.57;;;19.80;1.00;;;;;;5011621;28;20404;-70
2021/08/22 13:51:28;;;;;;;10.20;9.13;;;19.90;99.90;;;;;;5010686;28;20873;-69
2021/08/22 13:54:00;;;;;;;10.70;7.40;;;20.00;1.00;;;;;;5011580;28;20396;-70